sensor_id;sensor_type;location;lat;lon;timestamp;pressure;altitude;pressure_sealevel;temperature;humidity
4576;BME280;2300;51.874;8.430;2023-05-25T00:01:55;101676.34;;;9.29;99.68
4576;BME280;2300;51.874;8.430;2023-05-25T00:04:23;101685.91;;;9.40;99.64
4576;BME280;2300;51.874;8.430;2023-05-25T00:06:51;101684.00;;;9.40;99.76
4576;BME280;2300;51.874;8.430;2023-05-25T00:09:17;101676.00;;;9.45;100.00
4576;BME280;2300;51.874;8.430;2023-05-25T00:11:44;101677.78;;;9.59;100.00
4576;BME280;2300;51.874;8.430;2023-05-25T00:14:10;101658.81;;;9.58;99.64
4576;BME280;2300;51.874;8.430;2023-05-25T00:16:37;101675.75;;;9.75;98.59
4576;BME280;2300;51.874;8.430;2023-05-25T00:19:05;101672.19;;;9.74;98.97
4576;BME280;2300;51.874;8.430;2023-05-25T00:21:34;101679.34;;;9.69;99.96
4576;BME280;2300;51.874;8.430;2023-05-25T00:24:02;101648.44;;;9.53;98.94
4576;BME280;2300;51.874;8.430;2023-05-25T00:26:29;101669.56;;;9.59;99.31
4576;BME280;2300;51.874;8.430;2023-05-25T00:28:55;101672.72;;;9.56;100.00
4576;BME280;2300;51.874;8.430;2023-05-25T00:31:24;101668.84;;;9.44;98.89
4576;BME280;2300;51.874;8.430;2023-05-25T00:33:51;101677.47;;;9.41;100.00
4576;BME280;2300;51.874;8.430;2023-05-25T00:36:19;101678.69;;;9.32;100.00
4576;BME280;2300;51.874;8.430;2023-05-25T00:38:45;101670.94;;;9.42;100.00
4576;BME280;2300;51.874;8.430;2023-05-25T00:41:12;101674.72;;;9.41;100.00
4576;BME280;2300;51.874;8.430;2023-05-25T00:43:38;101663.34;;;9.44;100.00
4576;BME280;2300;51.874;8.430;2023-05-25T00:46:05;101671.16;;;9.41;100.00
4576;BME280;2300;51.874;8.430;2023-05-25T00:48:32;101669.25;;;9.41;100.00
4576;BME280;2300;51.874;8.430;2023-05-25T00:50:58;101671.69;;;9.30;100.00
4576;BME280;2300;51.874;8.430;2023-05-25T00:53:27;101670.09;;;9.14;99.56
4576;BME280;2300;51.874;8.430;2023-05-25T00:55:57;101675.84;;;9.19;100.00
4576;BME280;2300;51.874;8.430;2023-05-25T00:58:29;101663.72;;;9.07;99.76
4576;BME280;2300;51.874;8.430;2023-05-25T01:00:57;101647.53;;;8.63;100.00
4576;BME280;2300;51.874;8.430;2023-05-25T01:03:27;101647.47;;;8.78;100.00
4576;BME280;2300;51.874;8.430;2023-05-25T01:06:01;101668.44;;;8.92;100.00
4576;BME280;2300;51.874;8.430;2023-05-25T01:08:32;101664.22;;;8.89;100.00
4576;BME280;2300;51.874;8.430;2023-05-25T01:10:59;101669.66;;;8.83;100.00
4576;BME280;2300;51.874;8.430;2023-05-25T01:13:28;101658.19;;;8.72;100.00
4576;BME280;2300;51.874;8.430;2023-05-25T01:15:56;101670.59;;;8.68;100.00
4576;BME280;2300;51.874;8.430;2023-05-25T01:18:23;101664.16;;;8.61;100.00
4576;BME280;2300;51.874;8.430;2023-05-25T01:21:11;101668.47;;;8.49;100.00
4576;BME280;2300;51.874;8.430;2023-05-25T01:23:46;101672.69;;;8.52;100.00
4576;BME280;2300;51.874;8.430;2023-05-25T01:26:16;101649.34;;;8.35;100.00
4576;BME280;2300;51.874;8.430;2023-05-25T01:28:47;101662.59;;;8.31;100.00
4576;BME280;2300;51.874;8.430;2023-05-25T01:31:16;101666.00;;;8.33;100.00
4576;BME280;2300;51.874;8.430;2023-05-25T01:33:44;101664.28;;;8.32;100.00
4576;BME280;2300;51.874;8.430;2023-05-25T01:36:13;101674.19;;;8.33;100.00
4576;BME280;2300;51.874;8.430;2023-05-25T01:38:39;101671.97;;;8.22;100.00
4576;BME280;2300;51.874;8.430;2023-05-25T01:41:06;101671.97;;;8.22;100.00
4576;BME280;2300;51.874;8.430;2023-05-25T01:43:32;101656.72;;;8.13;100.00
4576;BME280;2300;51.874;8.430;2023-05-25T01:46:08;101668.03;;;8.10;100.00
4576;BME280;2300;51.874;8.430;2023-05-25T01:48:42;101670.50;;;8.05;100.00
4576;BME280;2300;51.874;8.430;2023-05-25T01:51:18;101658.25;;;8.01;100.00
4576;BME280;2300;51.874;8.430;2023-05-25T01:53:51;101672.13;;;7.99;100.00
4576;BME280;2300;51.874;8.430;2023-05-25T01:56:20;101678.25;;;8.01;100.00
4576;BME280;2300;51.874;8.430;2023-05-25T01:58:49;101678.16;;;7.95;100.00
4576;BME280;2300;51.874;8.430;2023-05-25T02:01:16;101681.88;;;7.87;100.00
4576;BME280;2300;51.874;8.430;2023-05-25T02:03:45;101661.50;;;7.75;100.00
4576;BME280;2300;51.874;8.430;2023-05-25T02:06:13;101680.75;;;7.81;100.00
4576;BME280;2300;51.874;8.430;2023-05-25T02:08:42;101675.59;;;7.72;100.00
4576;BME280;2300;51.874;8.430;2023-05-25T02:11:11;101667.84;;;7.75;100.00
4576;BME280;2300;51.874;8.430;2023-05-25T02:13:38;101646.47;;;7.50;100.00
4576;BME280;2300;51.874;8.430;2023-05-25T02:16:05;101673.38;;;7.67;100.00
4576;BME280;2300;51.874;8.430;2023-05-25T02:18:32;101677.94;;;7.60;100.00
4576;BME280;2300;51.874;8.430;2023-05-25T02:20:58;101674.06;;;7.55;100.00
4576;BME280;2300;51.874;8.430;2023-05-25T02:23:25;101674.66;;;7.50;100.00
4576;BME280;2300;51.874;8.430;2023-05-25T02:25:53;101685.09;;;7.46;100.00
4576;BME280;2300;51.874;8.430;2023-05-25T02:28:20;101678.59;;;7.48;100.00
4576;BME280;2300;51.874;8.430;2023-05-25T02:30:46;101629.41;;;7.18;100.00
4576;BME280;2300;51.874;8.430;2023-05-25T02:33:12;101673.88;;;7.41;100.00
4576;BME280;2300;51.874;8.430;2023-05-25T02:35:39;101678.59;;;7.33;100.00
4576;BME280;2300;51.874;8.430;2023-05-25T02:38:05;101672.09;;;7.34;100.00
4576;BME280;2300;51.874;8.430;2023-05-25T02:40:32;101679.25;;;7.35;100.00
4576;BME280;2300;51.874;8.430;2023-05-25T02:43:00;101674.53;;;7.29;100.00
4576;BME280;2300;51.874;8.430;2023-05-25T02:45:26;101676.25;;;7.30;100.00
4576;BME280;2300;51.874;8.430;2023-05-25T02:47:53;101669.81;;;7.23;100.00
4576;BME280;2300;51.874;8.430;2023-05-25T02:50:19;101671.53;;;7.24;100.00
4576;BME280;2300;51.874;8.430;2023-05-25T02:52:46;101678.69;;;7.25;100.00
4576;BME280;2300;51.874;8.430;2023-05-25T02:55:13;101679.44;;;7.19;100.00
4576;BME280;2300;51.874;8.430;2023-05-25T02:57:39;101680.47;;;7.18;100.00
4576;BME280;2300;51.874;8.430;2023-05-25T03:00:08;101680.63;;;7.16;100.00
4576;BME280;2300;51.874;8.430;2023-05-25T03:02:36;101689.03;;;7.15;100.00
4576;BME280;2300;51.874;8.430;2023-05-25T03:05:03;101674.72;;;7.13;100.00
4576;BME280;2300;51.874;8.430;2023-05-25T03:07:29;101683.00;;;7.05;100.00
4576;BME280;2300;51.874;8.430;2023-05-25T03:09:56;101694.28;;;7.01;100.00
4576;BME280;2300;51.874;8.430;2023-05-25T03:12:23;101690.97;;;7.06;100.00
4576;BME280;2300;51.874;8.430;2023-05-25T03:14:50;101696.13;;;6.86;100.00
4576;BME280;2300;51.874;8.430;2023-05-25T03:17:17;101692.09;;;6.97;100.00
4576;BME280;2300;51.874;8.430;2023-05-25T03:19:44;101695.41;;;6.92;100.00
4576;BME280;2300;51.874;8.430;2023-05-25T03:22:10;101690.19;;;6.83;100.00
4576;BME280;2300;51.874;8.430;2023-05-25T03:24:37;101701.03;;;6.91;100.00
4576;BME280;2300;51.874;8.430;2023-05-25T03:27:05;101707.22;;;6.85;100.00
4576;BME280;2300;51.874;8.430;2023-05-25T03:29:32;101707.53;;;6.67;100.00
4576;BME280;2300;51.874;8.430;2023-05-25T03:31:58;101716.31;;;6.77;100.00
4576;BME280;2300;51.874;8.430;2023-05-25T03:34:27;101713.41;;;6.79;100.00
4576;BME280;2300;51.874;8.430;2023-05-25T03:36:54;101712.88;;;6.83;100.00
4576;BME280;2300;51.874;8.430;2023-05-25T03:39:20;101713.84;;;6.90;100.00
4576;BME280;2300;51.874;8.430;2023-05-25T03:41:47;101710.06;;;6.91;100.00
4576;BME280;2300;51.874;8.430;2023-05-25T03:44:13;101713.19;;;6.88;100.00
4576;BME280;2300;51.874;8.430;2023-05-25T03:46:40;101720.28;;;6.97;100.00
4576;BME280;2300;51.874;8.430;2023-05-25T03:49:06;101722.16;;;6.97;100.00
4576;BME280;2300;51.874;8.430;2023-05-25T03:51:39;101723.00;;;6.97;100.00
4576;BME280;2300;51.874;8.430;2023-05-25T03:54:05;101727.16;;;7.08;99.99
4576;BME280;2300;51.874;8.430;2023-05-25T03:56:32;101733.50;;;7.09;100.00
4576;BME280;2300;51.874;8.430;2023-05-25T03:58:58;101731.09;;;7.06;100.00
4576;BME280;2300;51.874;8.430;2023-05-25T04:01:25;101736.88;;;7.11;100.00
4576;BME280;2300;51.874;8.430;2023-05-25T04:03:54;101731.97;;;7.21;100.00
4576;BME280;2300;51.874;8.430;2023-05-25T04:06:20;101737.09;;;7.24;100.00
4576;BME280;2300;51.874;8.430;2023-05-25T04:08:50;101742.84;;;7.29;100.00
4576;BME280;2300;51.874;8.430;2023-05-25T04:11:17;101734.84;;;7.42;99.63
4576;BME280;2300;51.874;8.430;2023-05-25T04:13:43;101739.47;;;7.41;99.22
4576;BME280;2300;51.874;8.430;2023-05-25T04:16:10;101746.34;;;7.52;99.89
4576;BME280;2300;51.874;8.430;2023-05-25T04:18:37;101747.31;;;7.59;99.70
4576;BME280;2300;51.874;8.430;2023-05-25T04:21:04;101752.13;;;7.72;99.71
4576;BME280;2300;51.874;8.430;2023-05-25T04:23:30;101746.00;;;7.84;99.91
4576;BME280;2300;51.874;8.430;2023-05-25T04:25:59;101755.03;;;8.00;99.68
4576;BME280;2300;51.874;8.430;2023-05-25T04:28:25;101753.06;;;8.08;99.21
4576;BME280;2300;51.874;8.430;2023-05-25T04:30:53;101750.09;;;8.24;98.98
4576;BME280;2300;51.874;8.430;2023-05-25T04:33:21;101749.22;;;8.39;98.96
4576;BME280;2300;51.874;8.430;2023-05-25T04:35:47;101728.47;;;8.29;98.47
4576;BME280;2300;51.874;8.430;2023-05-25T04:38:14;101756.63;;;8.59;98.22
4576;BME280;2300;51.874;8.430;2023-05-25T04:40:41;101750.53;;;8.79;98.96
4576;BME280;2300;51.874;8.430;2023-05-25T04:43:11;101756.56;;;9.44;99.37
4576;BME280;2300;51.874;8.430;2023-05-25T04:45:42;101744.78;;;10.19;99.21
4576;BME280;2300;51.874;8.430;2023-05-25T04:48:10;101747.97;;;10.97;97.85
4576;BME280;2300;51.874;8.430;2023-05-25T04:50:37;101762.38;;;11.71;95.34
4576;BME280;2300;51.874;8.430;2023-05-25T04:53:04;101759.91;;;12.07;92.03
4576;BME280;2300;51.874;8.430;2023-05-25T04:55:31;101754.63;;;12.13;88.60
4576;BME280;2300;51.874;8.430;2023-05-25T04:57:57;101760.75;;;12.21;87.21
4576;BME280;2300;51.874;8.430;2023-05-25T05:00:25;101771.13;;;12.19;85.94
4576;BME280;2300;51.874;8.430;2023-05-25T05:02:53;101770.06;;;12.20;85.12
4576;BME280;2300;51.874;8.430;2023-05-25T05:05:20;101756.38;;;12.45;84.49
4576;BME280;2300;51.874;8.430;2023-05-25T05:07:47;101775.47;;;12.84;82.73
4576;BME280;2300;51.874;8.430;2023-05-25T05:10:13;101784.00;;;13.39;80.98
4576;BME280;2300;51.874;8.430;2023-05-25T05:12:39;101781.06;;;13.59;78.58
4576;BME280;2300;51.874;8.430;2023-05-25T05:15:07;101783.91;;;13.52;77.87
4576;BME280;2300;51.874;8.430;2023-05-25T05:17:35;101784.09;;;13.75;78.76
4576;BME280;2300;51.874;8.430;2023-05-25T05:20:02;101787.13;;;14.47;75.84
4576;BME280;2300;51.874;8.430;2023-05-25T05:22:32;101789.88;;;14.95;74.46
4576;BME280;2300;51.874;8.430;2023-05-25T05:24:59;101793.28;;;15.38;71.66
4576;BME280;2300;51.874;8.430;2023-05-25T05:27:26;101774.75;;;15.62;70.72
4576;BME280;2300;51.874;8.430;2023-05-25T05:29:52;101782.34;;;15.78;69.96
4576;BME280;2300;51.874;8.430;2023-05-25T05:32:19;101793.03;;;15.28;70.04
4576;BME280;2300;51.874;8.430;2023-05-25T05:34:46;101810.81;;;14.25;73.00
4576;BME280;2300;51.874;8.430;2023-05-25T05:37:13;101808.69;;;13.27;74.19
4576;BME280;2300;51.874;8.430;2023-05-25T05:39:39;101813.66;;;12.87;76.84
4576;BME280;2300;51.874;8.430;2023-05-25T05:42:06;101813.72;;;12.68;78.70
4576;BME280;2300;51.874;8.430;2023-05-25T05:44:33;101821.50;;;12.33;78.36
4576;BME280;2300;51.874;8.430;2023-05-25T05:47:00;101817.31;;;12.10;79.88
4576;BME280;2300;51.874;8.430;2023-05-25T05:49:27;101820.78;;;11.80;82.09
4576;BME280;2300;51.874;8.430;2023-05-25T05:51:55;101821.81;;;11.85;82.17
4576;BME280;2300;51.874;8.430;2023-05-25T05:54:22;101831.09;;;11.97;81.39
4576;BME280;2300;51.874;8.430;2023-05-25T05:56:48;101815.03;;;11.94;80.80
4576;BME280;2300;51.874;8.430;2023-05-25T05:59:15;101831.75;;;11.99;80.99
4576;BME280;2300;51.874;8.430;2023-05-25T06:01:41;101827.97;;;11.74;81.34
4576;BME280;2300;51.874;8.430;2023-05-25T06:04:08;101833.69;;;11.79;82.20
4576;BME280;2300;51.874;8.430;2023-05-25T06:06:35;101832.63;;;11.67;82.82
4576;BME280;2300;51.874;8.430;2023-05-25T06:09:04;101838.56;;;11.71;81.95
4576;BME280;2300;51.874;8.430;2023-05-25T06:11:31;101839.81;;;11.68;83.30
4576;BME280;2300;51.874;8.430;2023-05-25T06:13:57;101838.97;;;11.74;83.04
4576;BME280;2300;51.874;8.430;2023-05-25T06:16:24;101836.88;;;11.76;82.65
4576;BME280;2300;51.874;8.430;2023-05-25T06:18:50;101843.81;;;11.98;82.94
4576;BME280;2300;51.874;8.430;2023-05-25T06:21:16;101836.00;;;11.89;82.01
4576;BME280;2300;51.874;8.430;2023-05-25T06:23:43;101851.88;;;11.67;81.36
4576;BME280;2300;51.874;8.430;2023-05-25T06:26:11;101844.06;;;11.77;82.00
4576;BME280;2300;51.874;8.430;2023-05-25T06:28:37;101849.16;;;11.80;82.58
4576;BME280;2300;51.874;8.430;2023-05-25T06:31:04;101859.31;;;11.86;82.96
4576;BME280;2300;51.874;8.430;2023-05-25T06:33:30;101855.47;;;12.00;81.98
4576;BME280;2300;51.874;8.430;2023-05-25T06:35:57;101853.16;;;11.91;81.30
4576;BME280;2300;51.874;8.430;2023-05-25T06:38:24;101865.25;;;11.70;82.53
4576;BME280;2300;51.874;8.430;2023-05-25T06:40:51;101859.47;;;11.98;82.04
4576;BME280;2300;51.874;8.430;2023-05-25T06:43:19;101868.19;;;12.01;81.42
4576;BME280;2300;51.874;8.430;2023-05-25T06:45:45;101864.34;;;12.02;81.12
4576;BME280;2300;51.874;8.430;2023-05-25T06:48:12;101868.19;;;11.95;81.10
4576;BME280;2300;51.874;8.430;2023-05-25T06:50:38;101875.63;;;11.81;81.79
4576;BME280;2300;51.874;8.430;2023-05-25T06:53:06;101867.34;;;11.88;82.97
4576;BME280;2300;51.874;8.430;2023-05-25T06:55:35;101860.97;;;11.87;83.24
4576;BME280;2300;51.874;8.430;2023-05-25T06:58:01;101866.28;;;11.95;82.28
4576;BME280;2300;51.874;8.430;2023-05-25T07:00:29;101874.13;;;11.85;81.34
4576;BME280;2300;51.874;8.430;2023-05-25T07:02:55;101864.16;;;11.91;82.83
4576;BME280;2300;51.874;8.430;2023-05-25T07:05:22;101863.72;;;11.87;82.44
4576;BME280;2300;51.874;8.430;2023-05-25T07:07:48;101878.50;;;12.19;81.30
4576;BME280;2300;51.874;8.430;2023-05-25T07:10:15;101872.00;;;12.00;80.45
4576;BME280;2300;51.874;8.430;2023-05-25T07:12:42;101866.47;;;11.87;80.55
4576;BME280;2300;51.874;8.430;2023-05-25T07:15:09;101873.91;;;11.74;81.41
4576;BME280;2300;51.874;8.430;2023-05-25T07:17:38;101880.44;;;11.92;80.74
4576;BME280;2300;51.874;8.430;2023-05-25T07:20:06;101881.09;;;11.88;80.85
4576;BME280;2300;51.874;8.430;2023-05-25T07:22:33;101878.13;;;11.63;82.76
4576;BME280;2300;51.874;8.430;2023-05-25T07:24:59;101885.53;;;11.82;83.29
4576;BME280;2300;51.874;8.430;2023-05-25T07:27:26;101881.31;;;11.99;81.52
4576;BME280;2300;51.874;8.430;2023-05-25T07:29:52;101887.44;;;12.01;80.81
4576;BME280;2300;51.874;8.430;2023-05-25T07:32:19;101867.75;;;11.78;79.97
4576;BME280;2300;51.874;8.430;2023-05-25T07:34:47;101879.63;;;11.79;80.72
4576;BME280;2300;51.874;8.430;2023-05-25T07:37:14;101886.59;;;11.88;81.05
4576;BME280;2300;51.874;8.430;2023-05-25T07:39:40;101885.97;;;11.73;81.16
4576;BME280;2300;51.874;8.430;2023-05-25T07:42:07;101888.06;;;12.03;81.07
4576;BME280;2300;51.874;8.430;2023-05-25T07:44:35;101892.31;;;12.13;80.36
4576;BME280;2300;51.874;8.430;2023-05-25T07:47:01;101871.56;;;11.90;81.56
4576;BME280;2300;51.874;8.430;2023-05-25T07:49:28;101896.13;;;12.05;80.43
4576;BME280;2300;51.874;8.430;2023-05-25T07:51:55;101898.88;;;11.98;80.43
4576;BME280;2300;51.874;8.430;2023-05-25T07:54:22;101903.75;;;11.70;79.51
4576;BME280;2300;51.874;8.430;2023-05-25T07:56:48;101906.72;;;11.88;80.76
4576;BME280;2300;51.874;8.430;2023-05-25T07:59:15;101905.84;;;12.14;80.49
4576;BME280;2300;51.874;8.430;2023-05-25T08:01:41;101892.72;;;12.23;79.52
4576;BME280;2300;51.874;8.430;2023-05-25T08:04:08;101915.16;;;12.33;77.75
4576;BME280;2300;51.874;8.430;2023-05-25T08:06:34;101912.00;;;12.16;78.47
4576;BME280;2300;51.874;8.430;2023-05-25T08:09:03;101906.91;;;12.20;78.42
4576;BME280;2300;51.874;8.430;2023-05-25T08:11:32;101890.16;;;12.28;77.90
4576;BME280;2300;51.874;8.430;2023-05-25T08:13:58;101908.34;;;12.42;77.43
4576;BME280;2300;51.874;8.430;2023-05-25T08:16:25;101913.66;;;12.24;78.24
4576;BME280;2300;51.874;8.430;2023-05-25T08:18:52;101917.97;;;12.77;77.51
4576;BME280;2300;51.874;8.430;2023-05-25T08:21:18;101920.41;;;13.12;76.81
4576;BME280;2300;51.874;8.430;2023-05-25T08:23:45;101922.94;;;13.13;76.91
4576;BME280;2300;51.874;8.430;2023-05-25T08:26:13;101924.53;;;13.34;76.11
4576;BME280;2300;51.874;8.430;2023-05-25T08:28:39;101927.22;;;13.47;73.91
4576;BME280;2300;51.874;8.430;2023-05-25T08:31:06;101930.25;;;12.94;75.08
4576;BME280;2300;51.874;8.430;2023-05-25T08:33:32;101921.34;;;12.92;74.64
4576;BME280;2300;51.874;8.430;2023-05-25T08:35:59;101918.41;;;12.87;75.47
4576;BME280;2300;51.874;8.430;2023-05-25T08:38:25;101924.66;;;13.08;75.23
4576;BME280;2300;51.874;8.430;2023-05-25T08:41:02;101921.94;;;13.01;76.35
4576;BME280;2300;51.874;8.430;2023-05-25T08:43:30;101919.53;;;13.18;77.07
4576;BME280;2300;51.874;8.430;2023-05-25T08:46:02;101915.22;;;13.28;75.53
4576;BME280;2300;51.874;8.430;2023-05-25T08:48:30;101920.72;;;13.35;75.23
4576;BME280;2300;51.874;8.430;2023-05-25T08:51:00;101925.41;;;13.28;73.52
4576;BME280;2300;51.874;8.430;2023-05-25T08:53:27;101924.31;;;12.84;73.90
4576;BME280;2300;51.874;8.430;2023-05-25T08:55:56;101925.66;;;12.62;74.53
4576;BME280;2300;51.874;8.430;2023-05-25T08:58:31;101933.66;;;12.83;74.22
4576;BME280;2300;51.874;8.430;2023-05-25T09:01:01;101931.88;;;13.09;75.33
4576;BME280;2300;51.874;8.430;2023-05-25T09:03:31;101898.69;;;13.22;75.03
4576;BME280;2300;51.874;8.430;2023-05-25T09:05:58;101932.66;;;13.54;72.88
4576;BME280;2300;51.874;8.430;2023-05-25T09:08:25;101932.56;;;13.42;72.36
4576;BME280;2300;51.874;8.430;2023-05-25T09:10:54;101951.25;;;13.33;74.21
4576;BME280;2300;51.874;8.430;2023-05-25T09:13:21;101947.22;;;13.36;74.30
4576;BME280;2300;51.874;8.430;2023-05-25T09:15:49;101947.94;;;13.25;73.79
4576;BME280;2300;51.874;8.430;2023-05-25T09:18:16;101946.03;;;13.19;73.87
4576;BME280;2300;51.874;8.430;2023-05-25T09:20:42;101936.44;;;13.28;74.00
4576;BME280;2300;51.874;8.430;2023-05-25T09:23:09;101945.78;;;13.58;73.89
4576;BME280;2300;51.874;8.430;2023-05-25T09:25:36;101939.91;;;13.79;73.83
4576;BME280;2300;51.874;8.430;2023-05-25T09:28:06;101951.66;;;14.00;73.32
4576;BME280;2300;51.874;8.430;2023-05-25T09:30:34;101952.28;;;14.27;72.98
4576;BME280;2300;51.874;8.430;2023-05-25T09:33:11;101945.34;;;14.42;72.59
4576;BME280;2300;51.874;8.430;2023-05-25T09:35:39;101935.16;;;14.61;71.18
4576;BME280;2300;51.874;8.430;2023-05-25T09:38:06;101939.03;;;15.08;70.61
4576;BME280;2300;51.874;8.430;2023-05-25T09:40:33;101930.78;;;14.90;69.77
4576;BME280;2300;51.874;8.430;2023-05-25T09:43:01;101935.16;;;15.16;71.85
4576;BME280;2300;51.874;8.430;2023-05-25T09:45:27;101937.09;;;15.98;69.19
4576;BME280;2300;51.874;8.430;2023-05-25T09:47:54;101922.78;;;16.01;67.97
4576;BME280;2300;51.874;8.430;2023-05-25T09:50:22;101927.47;;;15.47;66.48
4576;BME280;2300;51.874;8.430;2023-05-25T09:52:51;101943.97;;;15.06;69.02
4576;BME280;2300;51.874;8.430;2023-05-25T09:55:17;101947.97;;;14.74;69.92
4576;BME280;2300;51.874;8.430;2023-05-25T09:57:44;101959.59;;;15.00;72.06
4576;BME280;2300;51.874;8.430;2023-05-25T10:00:11;101946.00;;;15.17;70.40
4576;BME280;2300;51.874;8.430;2023-05-25T10:02:40;101955.19;;;14.93;69.93
4576;BME280;2300;51.874;8.430;2023-05-25T10:05:07;101951.81;;;14.54;70.58
4576;BME280;2300;51.874;8.430;2023-05-25T10:07:35;101947.41;;;14.47;70.39
4576;BME280;2300;51.874;8.430;2023-05-25T10:10:05;101945.97;;;14.62;70.42
4576;BME280;2300;51.874;8.430;2023-05-25T10:12:32;101948.66;;;14.87;69.99
4576;BME280;2300;51.874;8.430;2023-05-25T10:15:02;101945.75;;;14.82;68.99
4576;BME280;2300;51.874;8.430;2023-05-25T10:17:30;101948.22;;;15.08;69.64
4576;BME280;2300;51.874;8.430;2023-05-25T10:19:59;101950.59;;;15.05;68.71
4576;BME280;2300;51.874;8.430;2023-05-25T10:22:31;101958.22;;;15.10;69.03
4576;BME280;2300;51.874;8.430;2023-05-25T10:25:03;101951.84;;;15.09;68.73
4576;BME280;2300;51.874;8.430;2023-05-25T10:27:35;101947.81;;;15.05;69.82
4576;BME280;2300;51.874;8.430;2023-05-25T10:30:05;101957.41;;;15.39;69.39
4576;BME280;2300;51.874;8.430;2023-05-25T10:32:33;101959.19;;;15.33;67.01
4576;BME280;2300;51.874;8.430;2023-05-25T10:35:02;101954.94;;;15.61;69.80
4576;BME280;2300;51.874;8.430;2023-05-25T10:37:30;101958.09;;;15.34;67.32
4576;BME280;2300;51.874;8.430;2023-05-25T10:40:00;101952.25;;;15.42;67.39
4576;BME280;2300;51.874;8.430;2023-05-25T10:42:27;101942.59;;;15.33;68.61
4576;BME280;2300;51.874;8.430;2023-05-25T10:44:54;101957.84;;;15.66;67.84
4576;BME280;2300;51.874;8.430;2023-05-25T10:47:22;101965.25;;;15.83;67.21
4576;BME280;2300;51.874;8.430;2023-05-25T10:49:53;101961.00;;;16.22;66.65
4576;BME280;2300;51.874;8.430;2023-05-25T10:52:20;101954.50;;;16.28;66.16
4576;BME280;2300;51.874;8.430;2023-05-25T10:54:47;101945.97;;;16.42;66.84
4576;BME280;2300;51.874;8.430;2023-05-25T10:57:19;101954.22;;;16.88;64.85
4576;BME280;2300;51.874;8.430;2023-05-25T10:59:48;101950.13;;;16.91;64.07
4576;BME280;2300;51.874;8.430;2023-05-25T11:02:16;101942.84;;;17.01;65.70
4576;BME280;2300;51.874;8.430;2023-05-25T11:04:46;101945.91;;;16.88;63.99
4576;BME280;2300;51.874;8.430;2023-05-25T11:07:14;101954.03;;;16.55;63.02
4576;BME280;2300;51.874;8.430;2023-05-25T11:09:42;101948.97;;;16.28;64.89
4576;BME280;2300;51.874;8.430;2023-05-25T11:12:20;101950.50;;;16.01;66.31
4576;BME280;2300;51.874;8.430;2023-05-25T11:15:11;101957.94;;;15.89;68.50
4576;BME280;2300;51.874;8.430;2023-05-25T11:17:57;101952.94;;;16.09;67.24
4576;BME280;2300;51.874;8.430;2023-05-25T11:20:27;101950.47;;;15.89;67.91
4576;BME280;2300;51.874;8.430;2023-05-25T11:22:56;101950.84;;;16.05;66.84
4576;BME280;2300;51.874;8.430;2023-05-25T11:25:39;101949.28;;;16.09;66.96
4576;BME280;2300;51.874;8.430;2023-05-25T11:28:08;101941.56;;;15.99;65.59
4576;BME280;2300;51.874;8.430;2023-05-25T11:30:38;101937.28;;;16.38;66.69
4576;BME280;2300;51.874;8.430;2023-05-25T11:33:05;101933.81;;;16.43;65.94
4576;BME280;2300;51.874;8.430;2023-05-25T11:35:33;101934.84;;;16.65;65.08
4576;BME280;2300;51.874;8.430;2023-05-25T11:38:05;101902.84;;;16.86;63.96
4576;BME280;2300;51.874;8.430;2023-05-25T11:40:32;101885.34;;;16.85;63.82
4576;BME280;2300;51.874;8.430;2023-05-25T11:42:59;101916.03;;;17.47;63.57
4576;BME280;2300;51.874;8.430;2023-05-25T11:45:30;101924.91;;;17.32;63.04
4576;BME280;2300;51.874;8.430;2023-05-25T11:47:58;101921.00;;;17.16;63.03
4576;BME280;2300;51.874;8.430;2023-05-25T11:50:25;101909.34;;;16.91;62.58
4576;BME280;2300;51.874;8.430;2023-05-25T11:52:52;101922.34;;;16.51;64.29
4576;BME280;2300;51.874;8.430;2023-05-25T11:55:19;101925.34;;;16.61;64.16
4576;BME280;2300;51.874;8.430;2023-05-25T11:57:45;101910.16;;;16.40;65.53
4576;BME280;2300;51.874;8.430;2023-05-25T12:00:12;101921.88;;;16.30;65.72
4576;BME280;2300;51.874;8.430;2023-05-25T12:02:50;101919.19;;;16.12;64.77
4576;BME280;2300;51.874;8.430;2023-05-25T12:05:17;101909.81;;;16.13;65.52
4576;BME280;2300;51.874;8.430;2023-05-25T12:07:44;101923.31;;;16.21;67.01
4576;BME280;2300;51.874;8.430;2023-05-25T12:10:12;101906.69;;;16.21;66.84
4576;BME280;2300;51.874;8.430;2023-05-25T12:12:39;101919.94;;;16.19;66.80
4576;BME280;2300;51.874;8.430;2023-05-25T12:15:07;101920.03;;;16.24;65.98
4576;BME280;2300;51.874;8.430;2023-05-25T12:17:35;101911.72;;;16.24;66.67
4576;BME280;2300;51.874;8.430;2023-05-25T12:20:03;101908.09;;;16.12;66.36
4576;BME280;2300;51.874;8.430;2023-05-25T12:22:31;101916.78;;;16.27;65.54
4576;BME280;2300;51.874;8.430;2023-05-25T12:24:58;101911.69;;;16.71;66.55
4576;BME280;2300;51.874;8.430;2023-05-25T12:27:25;101908.78;;;16.89;63.41
4576;BME280;2300;51.874;8.430;2023-05-25T12:29:51;101911.19;;;16.74;65.18
4576;BME280;2300;51.874;8.430;2023-05-25T12:32:18;101916.19;;;16.14;64.20
4576;BME280;2300;51.874;8.430;2023-05-25T12:34:44;101915.25;;;16.31;65.70
4576;BME280;2300;51.874;8.430;2023-05-25T12:37:19;101914.41;;;16.31;67.03
4576;BME280;2300;51.874;8.430;2023-05-25T12:39:47;101905.00;;;16.32;65.62
4576;BME280;2300;51.874;8.430;2023-05-25T12:42:15;101916.19;;;16.25;65.33
4576;BME280;2300;51.874;8.430;2023-05-25T12:44:43;101916.44;;;16.47;64.72
4576;BME280;2300;51.874;8.430;2023-05-25T12:47:12;101916.03;;;16.67;64.02
4576;BME280;2300;51.874;8.430;2023-05-25T12:49:39;101914.47;;;16.71;64.17
4576;BME280;2300;51.874;8.430;2023-05-25T12:52:07;101912.78;;;16.70;63.06
4576;BME280;2300;51.874;8.430;2023-05-25T12:54:37;101912.31;;;16.61;63.53
4576;BME280;2300;51.874;8.430;2023-05-25T12:57:07;101910.94;;;16.75;62.60
4576;BME280;2300;51.874;8.430;2023-05-25T12:59:35;101906.75;;;16.73;63.14
4576;BME280;2300;51.874;8.430;2023-05-25T13:02:02;101907.59;;;17.42;64.71
4576;BME280;2300;51.874;8.430;2023-05-25T13:04:30;101902.75;;;17.49;61.86
4576;BME280;2300;51.874;8.430;2023-05-25T13:06:56;101910.66;;;17.40;60.90
4576;BME280;2300;51.874;8.430;2023-05-25T13:09:23;101910.28;;;16.97;63.46
4576;BME280;2300;51.874;8.430;2023-05-25T13:11:53;101909.88;;;16.76;63.38
4576;BME280;2300;51.874;8.430;2023-05-25T13:14:20;101911.97;;;16.58;62.99
4576;BME280;2300;51.874;8.430;2023-05-25T13:16:47;101900.53;;;16.31;64.71